Time;durP1;ratioP1;P1;durP2;ratioP2;P2;SDS_P1;SDS_P2;PMS_P1;PMS_P2;Temp;Humidity;BMP_temperature;BMP_pressure;BME280_temperature;BME280_humidity;BME280_pressure;Samples;Min_cycle;Max_cycle;Signal;HPM_P1;HPM_P2
2023/09/03 00:01:27;;;;;;;2.13;1.80;;;12.60;99.90;;;;;;4972086;28;20047;-77
2023/09/03 00:03:53;;;;;;;1.92;1.67;;;12.50;99.90;;;;;;4971225;28;20466;-77
2023/09/03 00:06:20;;;;;;;1.70;1.38;;;12.50;99.90;;;;;;4962291;28;20047;-77
2023/09/03 00:08:46;;;;;;;1.90;1.40;;;12.50;99.90;;;;;;4967282;28;20105;-77
2023/09/03 00:11:12;;;;;;;1.60;1.33;;;12.40;99.90;;;;;;4966441;28;20412;-77
2023/09/03 00:13:37;;;;;;;1.73;1.40;;;12.50;99.90;;;;;;4950015;28;20133;-77
2023/09/03 00:16:03;;;;;;;2.15;1.58;;;12.40;99.90;;;;;;4971384;28;20047;-77
2023/09/03 00:18:29;;;;;;;1.80;1.40;;;12.40;99.90;;;;;;4971057;28;20074;-77
2023/09/03 00:21:01;;;;;;;1.60;1.30;;;12.30;99.90;;;;;;4970938;28;20038;-77
2023/09/03 00:23:28;;;;;;;1.20;1.10;;;12.30;99.90;;;;;;4970732;28;20050;-77
2023/09/03 00:25:55;;;;;;;1.60;1.38;;;12.30;99.90;;;;;;4958695;28;20161;-77
2023/09/03 00:28:22;;;;;;;2.70;1.40;;;12.30;99.90;;;;;;4971393;28;20086;-77
2023/09/03 00:30:58;;;;;;;;;;;12.40;99.90;;;;;;4955456;28;20035;-77
2023/09/03 00:33:24;;;;;;;1.52;1.38;;;12.40;99.90;;;;;;4991444;28;20386;-77
2023/09/03 00:35:50;;;;;;;1.52;1.38;;;12.30;99.90;;;;;;4985856;28;20031;-77
2023/09/03 00:38:15;;;;;;;1.27;1.17;;;12.20;99.90;;;;;;4970850;28;20113;-77
2023/09/03 00:40:41;;;;;;;3.22;1.80;;;12.20;99.90;;;;;;4971220;28;20050;-77
2023/09/03 00:43:06;;;;;;;1.63;1.50;;;12.10;99.90;;;;;;4955016;28;20522;-77
2023/09/03 00:45:33;;;;;;;1.63;1.38;;;12.10;99.90;;;;;;4971193;28;20406;-77
2023/09/03 00:47:59;;;;;;;1.58;1.20;;;12.10;99.90;;;;;;4964964;28;20094;-77
2023/09/03 00:50:26;;;;;;;1.77;1.38;;;12.10;99.90;;;;;;4963449;28;20078;-77
2023/09/03 00:52:51;;;;;;;1.58;1.30;;;12.10;99.90;;;;;;4968091;28;20039;-77
2023/09/03 00:55:17;;;;;;;1.50;1.30;;;12.10;99.90;;;;;;4938695;28;20042;-77
2023/09/03 00:57:43;;;;;;;1.70;1.40;;;12.00;99.90;;;;;;4956993;28;20051;-77
2023/09/03 01:00:09;;;;;;;1.25;1.15;;;12.10;99.90;;;;;;4970751;28;20054;-77
2023/09/03 01:02:36;;;;;;;1.90;1.50;;;12.10;99.90;;;;;;4986711;28;20528;-77
2023/09/03 01:05:02;;;;;;;1.75;1.27;;;12.10;99.90;;;;;;4970898;28;20046;-77
2023/09/03 01:07:30;;;;;;;1.40;1.30;;;12.10;99.90;;;;;;4970437;28;20046;-77
2023/09/03 01:09:56;;;;;;;1.30;1.20;;;12.10;99.90;;;;;;4965954;28;20380;-77
2023/09/03 01:12:31;;;;;;;1.50;1.30;;;12.10;99.90;;;;;;4962402;28;20062;-77
2023/09/03 01:15:07;;;;;;;1.42;1.33;;;12.20;99.90;;;;;;4970430;28;20133;-77
2023/09/03 01:17:56;;;;;;;1.60;1.33;;;12.20;99.90;;;;;;4970269;28;20047;-77
2023/09/03 01:20:28;;;;;;;1.23;1.13;;;12.20;99.90;;;;;;4970253;28;20101;-77
2023/09/03 01:22:59;;;;;;;2.13;1.05;;;12.20;99.90;;;;;;4958372;28;20074;-77
2023/09/03 01:25:37;;;;;;;1.58;1.20;;;12.30;99.90;;;;;;4956163;28;20154;-77
2023/09/03 01:28:14;;;;;;;1.85;1.30;;;12.30;99.90;;;;;;4970299;28;20043;-77
2023/09/03 01:30:41;;;;;;;2.03;1.38;;;12.30;99.90;;;;;;4969712;28;20034;-77
2023/09/03 01:33:08;;;;;;;1.52;1.25;;;12.20;99.90;;;;;;4951660;28;20046;-77
2023/09/03 01:35:34;;;;;;;1.50;1.17;;;12.20;99.90;;;;;;4967166;28;20573;-77
2023/09/03 01:38:00;;;;;;;;;;;12.20;99.90;;;;;;4959447;28;20090;-77
2023/09/03 01:40:25;;;;;;;1.73;1.35;;;12.20;99.90;;;;;;4968439;28;20008;-77
2023/09/03 01:42:51;;;;;;;2.17;1.40;;;12.20;99.90;;;;;;4962659;28;20394;-77
2023/09/03 01:45:17;;;;;;;1.38;1.20;;;12.30;99.90;;;;;;4953958;28;20042;-77
2023/09/03 01:47:55;;;;;;;1.48;1.30;;;12.30;99.90;;;;;;4969995;28;20099;-77
2023/09/03 01:50:33;;;;;;;1.30;1.15;;;12.40;99.90;;;;;;5002279;28;20239;-77
2023/09/03 01:53:04;;;;;;;1.40;1.15;;;12.40;99.90;;;;;;4962443;28;20047;-77
2023/09/03 01:55:34;;;;;;;1.50;1.20;;;12.50;99.90;;;;;;4964240;28;20046;-77
2023/09/03 01:58:03;;;;;;;1.50;1.27;;;12.50;99.90;;;;;;4958035;28;20117;-76
2023/09/03 02:00:29;;;;;;;1.48;1.20;;;12.50;99.90;;;;;;4968960;28;20222;-76
2023/09/03 02:02:56;;;;;;;1.13;1.02;;;12.60;99.90;;;;;;4956269;28;20066;-76
2023/09/03 02:05:22;;;;;;;1.13;1.02;;;12.60;99.90;;;;;;4969317;28;20062;-76
2023/09/03 02:07:48;;;;;;;1.10;1.00;;;12.50;99.90;;;;;;4969081;28;20371;-76
2023/09/03 02:10:13;;;;;;;0.77;0.77;;;12.50;99.90;;;;;;4950398;28;20042;-76
2023/09/03 02:12:39;;;;;;;0.90;0.90;;;12.50;99.90;;;;;;4942757;28;20071;-76
2023/09/03 02:15:05;;;;;;;0.80;0.80;;;12.50;99.90;;;;;;4964722;28;20086;-76
2023/09/03 02:17:31;;;;;;;;;;;12.60;99.90;;;;;;4945203;29;20059;-76
2023/09/03 02:19:57;;;;;;;1.10;1.00;;;12.50;99.90;;;;;;4958257;28;19918;-76
2023/09/03 02:22:23;;;;;;;1.08;0.98;;;12.40;99.90;;;;;;4954895;28;20106;-76
2023/09/03 02:24:50;;;;;;;0.95;0.88;;;12.40;99.90;;;;;;4979361;28;20059;-76
2023/09/03 02:27:16;;;;;;;1.38;1.27;;;12.40;99.90;;;;;;4963177;28;20054;-76
2023/09/03 02:29:41;;;;;;;1.27;1.05;;;12.40;99.90;;;;;;4950563;28;20039;-76
2023/09/03 02:32:07;;;;;;;1.38;1.20;;;12.30;99.90;;;;;;4968207;28;20070;-76
2023/09/03 02:34:37;;;;;;;1.10;1.00;;;12.20;99.90;;;;;;4969809;28;20413;-76
2023/09/03 02:37:03;;;;;;;1.40;1.20;;;12.20;99.90;;;;;;4953358;28;20769;-76
2023/09/03 02:39:28;;;;;;;1.80;1.25;;;12.10;99.90;;;;;;4969510;28;20039;-76
2023/09/03 02:41:54;;;;;;;1.17;1.08;;;12.00;99.90;;;;;;4955896;28;20043;-76
2023/09/03 02:44:20;;;;;;;1.33;1.23;;;12.00;99.90;;;;;;4953185;28;20049;-76
2023/09/03 02:46:45;;;;;;;1.17;1.08;;;11.90;99.90;;;;;;4972469;28;20078;-76
2023/09/03 02:49:11;;;;;;;1.20;1.10;;;11.90;99.90;;;;;;4971370;28;20097;-76
2023/09/03 02:51:40;;;;;;;1.17;1.08;;;11.80;99.90;;;;;;4969834;28;20051;-76
2023/09/03 02:54:06;;;;;;;1.23;1.13;;;11.70;99.90;;;;;;4967026;28;20094;-76
2023/09/03 02:56:32;;;;;;;1.23;1.10;;;11.80;99.90;;;;;;4962713;28;20039;-76
2023/09/03 02:58:58;;;;;;;1.20;1.08;;;11.80;99.90;;;;;;4971622;28;20053;-76
2023/09/03 03:01:23;;;;;;;2.25;1.10;;;11.80;99.90;;;;;;4965690;28;20054;-76
2023/09/03 03:03:49;;;;;;;1.17;1.00;;;11.80;99.90;;;;;;4953879;28;20093;-76
2023/09/03 03:06:16;;;;;;;1.20;1.10;;;11.80;99.90;;;;;;4955739;28;20043;-76
2023/09/03 03:08:42;;;;;;;1.38;1.10;;;11.80;99.90;;;;;;4961755;28;20043;-76
2023/09/03 03:11:16;;;;;;;1.15;1.05;;;11.70;99.90;;;;;;4970114;28;20121;-76
2023/09/03 03:13:43;;;;;;;1.67;1.10;;;11.70;99.90;;;;;;4972386;28;20062;-76
2023/09/03 03:16:10;;;;;;;1.10;1.00;;;11.70;99.90;;;;;;4941237;28;20051;-76
2023/09/03 03:18:38;;;;;;;0.90;0.90;;;11.60;99.90;;;;;;4977784;28;20058;-76
2023/09/03 03:21:14;;;;;;;1.20;1.10;;;11.50;99.90;;;;;;4961501;28;20051;-78
2023/09/03 03:23:41;;;;;;;1.20;1.10;;;11.50;99.90;;;;;;4968095;28;20111;-78
2023/09/03 03:26:07;;;;;;;1.10;1.00;;;11.40;99.90;;;;;;4996199;28;20047;-78
2023/09/03 03:28:34;;;;;;;1.27;1.17;;;11.40;99.90;;;;;;4969521;28;20107;-78
2023/09/03 03:31:18;;;;;;;1.35;1.00;;;11.40;99.90;;;;;;4953254;28;20467;-78
2023/09/03 03:33:46;;;;;;;1.20;1.10;;;11.40;99.90;;;;;;4972130;28;20050;-78
2023/09/03 03:36:16;;;;;;;1.10;1.00;;;11.40;99.90;;;;;;4972321;28;20462;-78
2023/09/03 03:38:42;;;;;;;1.10;1.00;;;11.40;99.90;;;;;;4972021;28;20085;-78
2023/09/03 03:41:10;;;;;;;1.40;1.23;;;11.40;99.90;;;;;;4956694;28;20092;-78
2023/09/03 03:43:47;;;;;;;1.42;1.33;;;11.40;99.90;;;;;;4969388;28;20051;-78
2023/09/03 03:46:15;;;;;;;2.95;1.40;;;11.40;99.90;;;;;;4971809;28;20055;-78
2023/09/03 03:48:41;;;;;;;1.30;1.20;;;11.50;99.90;;;;;;4974144;28;20042;-78
2023/09/03 03:51:07;;;;;;;1.42;1.30;;;11.50;99.90;;;;;;4973789;28;20452;-78
2023/09/03 03:53:33;;;;;;;1.75;1.42;;;11.50;99.90;;;;;;4969926;28;20129;-78
2023/09/03 03:56:04;;;;;;;1.83;1.42;;;11.50;99.90;;;;;;4969993;28;20043;-78
2023/09/03 03:58:31;;;;;;;1.67;1.30;;;11.50;99.90;;;;;;5003476;28;20078;-78
2023/09/03 04:00:57;;;;;;;1.73;1.30;;;11.40;99.90;;;;;;4970529;28;20041;-78
2023/09/03 04:03:24;;;;;;;1.55;1.45;;;11.40;99.90;;;;;;4970741;28;20051;-78
2023/09/03 04:05:56;;;;;;;;;;;11.40;99.90;;;;;;4954475;28;20081;-78
2023/09/03 04:08:22;;;;;;;1.23;1.10;;;11.40;99.90;;;;;;5002730;28;19918;-78
2023/09/03 04:10:55;;;;;;;1.50;1.30;;;11.30;99.90;;;;;;5002900;28;20054;-78
2023/09/03 04:13:21;;;;;;;1.75;1.23;;;11.30;99.90;;;;;;4970264;28;20419;-78
2023/09/03 04:15:46;;;;;;;1.30;1.20;;;11.30;99.90;;;;;;4939151;28;20043;-78
2023/09/03 04:18:12;;;;;;;1.30;1.20;;;11.20;99.90;;;;;;5001891;28;20532;-78
2023/09/03 04:20:38;;;;;;;1.20;1.10;;;11.20;99.90;;;;;;4952133;28;20058;-78
2023/09/03 04:23:03;;;;;;;1.20;1.10;;;11.20;99.90;;;;;;4948827;28;20046;-78
2023/09/03 04:25:29;;;;;;;1.30;1.10;;;11.20;99.90;;;;;;4957891;28;20053;-78
2023/09/03 04:27:55;;;;;;;1.30;1.20;;;11.20;99.90;;;;;;4959880;28;20065;-78
2023/09/03 04:30:20;;;;;;;1.02;0.93;;;11.20;99.90;;;;;;4936895;28;20042;-78
2023/09/03 04:32:46;;;;;;;1.02;0.93;;;11.20;99.90;;;;;;4971203;28;20047;-78
2023/09/03 04:35:12;;;;;;;1.13;1.00;;;11.20;99.90;;;;;;4957575;28;20126;-78
2023/09/03 04:37:37;;;;;;;1.25;1.13;;;11.20;99.90;;;;;;4971223;28;20086;-78
2023/09/03 04:40:03;;;;;;;1.10;1.00;;;11.20;99.90;;;;;;4955128;28;20517;-78
2023/09/03 04:42:29;;;;;;;1.08;0.98;;;11.20;99.90;;;;;;4951921;28;20126;-78
2023/09/03 04:44:55;;;;;;;1.00;0.90;;;11.20;99.90;;;;;;4978986;28;20189;-78
2023/09/03 04:47:20;;;;;;;1.35;1.25;;;11.30;99.90;;;;;;4954011;28;20085;-78
2023/09/03 04:49:46;;;;;;;1.25;1.15;;;11.30;99.90;;;;;;4960777;28;20046;-78
2023/09/03 04:52:12;;;;;;;1.23;1.10;;;11.30;99.90;;;;;;4941198;28;20039;-78
2023/09/03 04:54:37;;;;;;;1.20;1.10;;;11.30;99.90;;;;;;4970908;28;20038;-78
2023/09/03 04:57:03;;;;;;;1.25;1.10;;;11.30;99.90;;;;;;4970232;28;20051;-78
2023/09/03 04:59:29;;;;;;;1.45;1.20;;;11.30;99.90;;;;;;4998057;28;20194;-78
2023/09/03 05:01:54;;;;;;;1.17;1.08;;;11.30;99.90;;;;;;4946391;28;20447;-78
2023/09/03 05:04:20;;;;;;;1.30;1.20;;;11.40;99.90;;;;;;4970509;28;20047;-78
2023/09/03 05:06:46;;;;;;;1.30;1.10;;;11.40;99.90;;;;;;4970475;28;20057;-78
2023/09/03 05:09:11;;;;;;;1.52;1.13;;;11.40;99.90;;;;;;4969271;28;20042;-78
2023/09/03 05:11:39;;;;;;;1.40;1.20;;;11.40;99.90;;;;;;4973993;28;20178;-78
2023/09/03 05:14:05;;;;;;;1.08;0.98;;;11.50;99.90;;;;;;4964552;28;20047;-78
2023/09/03 05:16:30;;;;;;;1.20;1.10;;;11.50;99.90;;;;;;4956713;28;20387;-78
2023/09/03 05:18:57;;;;;;;1.40;1.13;;;11.50;99.90;;;;;;4970550;28;20109;-78
2023/09/03 05:21:23;;;;;;;1.10;1.00;;;11.50;99.90;;;;;;4941012;29;20051;-78
2023/09/03 05:23:49;;;;;;;1.65;1.10;;;11.60;99.90;;;;;;4970207;28;20046;-78
2023/09/03 05:26:15;;;;;;;1.10;1.00;;;11.60;99.90;;;;;;4953853;28;20050;-78
2023/09/03 05:28:40;;;;;;;1.13;1.00;;;11.60;99.90;;;;;;4970684;28;20045;-78
2023/09/03 05:31:06;;;;;;;1.23;1.00;;;11.60;99.90;;;;;;4970014;28;20121;-78
2023/09/03 05:33:31;;;;;;;1.20;1.10;;;11.70;99.90;;;;;;4955062;28;20043;-78
2023/09/03 05:35:57;;;;;;;1.05;0.90;;;11.70;99.90;;;;;;4939158;29;20502;-78
2023/09/03 05:38:23;;;;;;;1.00;0.85;;;11.70;99.90;;;;;;4996734;28;20050;-78
2023/09/03 05:40:48;;;;;;;1.48;1.30;;;11.80;99.90;;;;;;4970186;28;20082;-78
2023/09/03 05:43:14;;;;;;;1.10;1.00;;;11.90;99.90;;;;;;4970199;28;20050;-78
2023/09/03 05:45:48;;;;;;;1.00;0.90;;;11.90;99.90;;;;;;4966883;28;20047;-78
2023/09/03 05:48:13;;;;;;;1.00;0.90;;;12.00;99.90;;;;;;4958692;28;20149;-79
2023/09/03 05:50:39;;;;;;;0.93;0.80;;;12.10;99.90;;;;;;4949982;28;20150;-78
2023/09/03 05:53:05;;;;;;;1.10;1.00;;;12.20;99.90;;;;;;4966841;28;20042;-78
2023/09/03 05:55:31;;;;;;;0.68;0.68;;;12.20;99.90;;;;;;4973092;28;20061;-80
2023/09/03 05:57:56;;;;;;;0.75;0.75;;;12.40;99.90;;;;;;4969537;28;20101;-79
2023/09/03 06:00:22;;;;;;;0.80;0.80;;;12.50;99.90;;;;;;4968490;28;20070;-79
2023/09/03 06:02:48;;;;;;;0.55;0.55;;;12.60;99.90;;;;;;4979003;28;20050;-77
2023/09/03 06:05:14;;;;;;;0.68;0.68;;;12.70;99.90;;;;;;4973262;28;20541;-78
2023/09/03 06:07:40;;;;;;;0.57;0.57;;;12.80;99.90;;;;;;4969686;28;20047;-77
2023/09/03 06:10:06;;;;;;;0.85;0.50;;;12.80;99.90;;;;;;4972411;28;20035;-77
2023/09/03 06:12:32;;;;;;;0.60;0.60;;;12.80;99.90;;;;;;4952105;28;20134;-77
2023/09/03 06:14:59;;;;;;;0.77;0.60;;;12.90;99.90;;;;;;4982526;28;20047;-84
2023/09/03 06:17:25;;;;;;;0.75;0.75;;;12.90;99.90;;;;;;4965087;28;20129;-77
2023/09/03 06:19:51;;;;;;;0.65;0.60;;;13.00;99.90;;;;;;4968993;28;20133;-77
2023/09/03 06:22:17;;;;;;;0.93;0.90;;;13.00;99.90;;;;;;4987361;28;20122;-76
2023/09/03 06:24:43;;;;;;;0.60;0.60;;;13.10;99.90;;;;;;4953962;28;20109;-76
2023/09/03 06:27:08;;;;;;;1.00;0.90;;;13.20;99.90;;;;;;4965876;28;20725;-78
2023/09/03 06:29:34;;;;;;;0.80;0.80;;;13.20;99.90;;;;;;4956909;28;20043;-76
2023/09/03 06:31:59;;;;;;;0.80;0.70;;;13.40;99.90;;;;;;5000083;28;20039;-76
2023/09/03 06:34:25;;;;;;;1.42;1.15;;;13.50;99.90;;;;;;4969429;28;20137;-76
2023/09/03 06:36:51;;;;;;;0.75;0.75;;;13.60;99.90;;;;;;4967392;28;20038;-76
2023/09/03 06:39:18;;;;;;;0.90;0.80;;;13.70;99.90;;;;;;5005329;28;20082;-77
2023/09/03 06:41:43;;;;;;;1.20;1.10;;;13.90;99.90;;;;;;4973376;28;20475;-77
2023/09/03 06:44:09;;;;;;;1.30;1.20;;;14.00;99.90;;;;;;4972926;28;20049;-77
2023/09/03 06:46:35;;;;;;;1.30;1.17;;;14.30;99.90;;;;;;4957242;28;20054;-77
2023/09/03 06:49:00;;;;;;;1.30;1.20;;;14.60;99.90;;;;;;4971185;28;20053;-77
2023/09/03 06:51:26;;;;;;;1.83;1.00;;;14.80;99.90;;;;;;4964934;28;20043;-77
2023/09/03 06:53:52;;;;;;;1.73;1.50;;;15.00;99.90;;;;;;4971324;28;20066;-77
2023/09/03 06:56:17;;;;;;;1.70;1.40;;;15.20;99.90;;;;;;4960746;28;20490;-76
2023/09/03 06:58:43;;;;;;;1.40;1.30;;;15.50;99.90;;;;;;4987139;28;20077;-76
2023/09/03 07:01:08;;;;;;;1.40;1.30;;;15.70;99.90;;;;;;4972655;28;20054;-77
2023/09/03 07:03:34;;;;;;;1.30;1.20;;;16.00;99.90;;;;;;4972621;28;20035;-77
2023/09/03 07:06:00;;;;;;;1.70;1.27;;;16.30;99.90;;;;;;5000599;28;20582;-76
2023/09/03 07:08:26;;;;;;;2.05;1.50;;;16.40;99.90;;;;;;4961942;28;20043;-76
2023/09/03 07:10:58;;;;;;;1.67;1.50;;;16.50;99.90;;;;;;4962981;28;20122;-76
2023/09/03 07:13:23;;;;;;;1.40;1.20;;;16.80;99.90;;;;;;4968258;28;20527;-76
2023/09/03 07:15:49;;;;;;;1.75;1.42;;;17.00;99.90;;;;;;4968652;28;20077;-76
2023/09/03 07:18:15;;;;;;;1.55;1.30;;;17.40;99.90;;;;;;4997811;28;20050;-77
2023/09/03 07:20:40;;;;;;;1.60;1.20;;;17.60;99.90;;;;;;4961332;28;20078;-77
2023/09/03 07:23:06;;;;;;;1.85;1.50;;;17.70;99.90;;;;;;4956153;28;20039;-76
2023/09/03 07:25:34;;;;;;;1.77;1.45;;;17.60;99.90;;;;;;4991582;28;20113;-76
2023/09/03 07:28:00;;;;;;;2.00;1.80;;;17.70;99.90;;;;;;4971179;28;20125;-77
2023/09/03 07:30:25;;;;;;;;;;;17.50;99.90;;;;;;4955797;28;20074;-79
2023/09/03 07:32:51;;;;;;;1.80;1.30;;;17.50;99.90;;;;;;4973135;28;19964;-79
2023/09/03 07:35:17;;;;;;;1.58;1.15;;;17.50;99.90;;;;;;4968892;28;20046;-79
2023/09/03 07:37:43;;;;;;;1.20;1.00;;;17.40;99.90;;;;;;4972237;28;20057;-79
2023/09/03 07:40:09;;;;;;;0.82;0.82;;;17.40;99.90;;;;;;4970334;28;20503;-80
2023/09/03 07:42:35;;;;;;;1.50;1.00;;;17.50;99.90;;;;;;4973714;28;20084;-79
2023/09/03 07:45:01;;;;;;;;;;;17.40;99.90;;;;;;4957640;28;20546;-79
2023/09/03 07:47:27;;;;;;;1.25;1.15;;;17.40;99.90;;;;;;4970595;28;19922;-79
2023/09/03 07:49:52;;;;;;;;;;;17.50;99.90;;;;;;4954627;28;20035;-79
2023/09/03 07:52:18;;;;;;;1.15;1.05;;;17.60;99.90;;;;;;4968664;28;20299;-79
2023/09/03 07:54:44;;;;;;;;;;;17.80;99.90;;;;;;4956917;28;20152;-79
2023/09/03 07:57:10;;;;;;;1.42;0.98;;;17.90;99.90;;;;;;4999393;28;20369;-79
2023/09/03 07:59:36;;;;;;;0.80;0.75;;;18.10;99.90;;;;;;4953002;28;20138;-79
2023/09/03 08:02:02;;;;;;;;;;;18.20;99.90;;;;;;4947809;28;20120;-79
2023/09/03 08:04:28;;;;;;;1.17;0.98;;;18.40;99.90;;;;;;4966996;28;19922;-79
2023/09/03 08:06:54;;;;;;;1.35;0.95;;;18.50;99.90;;;;;;4952597;28;20055;-79
2023/09/03 08:09:23;;;;;;;;;;;18.60;99.90;;;;;;4971152;28;20046;-79
2023/09/03 08:11:49;;;;;;;1.00;0.90;;;18.70;47.00;;;;;;4998303;28;19926;-79
2023/09/03 08:14:15;;;;;;;0.90;0.80;;;18.70;99.90;;;;;;4972669;28;20051;-79
2023/09/03 08:16:40;;;;;;;;;;;18.70;99.90;;;;;;4971796;28;20379;-79
2023/09/03 08:19:06;;;;;;;1.05;0.82;;;18.80;99.90;;;;;;5004020;28;20318;-79
2023/09/03 08:21:32;;;;;;;;;;;18.90;99.90;;;;;;4955864;28;20046;-78
2023/09/03 08:23:57;;;;;;;0.88;0.70;;;18.90;99.90;;;;;;5003882;28;19922;-78
2023/09/03 08:26:23;;;;;;;;;;;19.00;99.90;;;;;;4954265;28;20053;-77
2023/09/03 08:28:49;;;;;;;1.25;0.75;;;19.10;99.90;;;;;;4982835;28;19918;-79
2023/09/03 08:31:14;;;;;;;0.57;0.57;;;19.10;99.90;;;;;;4997300;28;20050;-79
2023/09/03 08:33:40;;;;;;;;;;;19.10;43.20;;;;;;4960696;28;20121;-79
2023/09/03 08:36:06;;;;;;;2.10;0.98;;;19.10;99.90;;;;;;4994178;28;19941;-78
2023/09/03 08:38:32;;;;;;;1.10;0.70;;;19.00;99.90;;;;;;4974231;28;20047;-78
2023/09/03 08:40:58;;;;;;;1.73;0.70;;;19.10;7.30;;;;;;4972802;28;20069;-78
2023/09/03 08:43:27;;;;;;;;;;;19.40;68.10;;;;;;4963988;28;20126;-79
2023/09/03 08:46:03;;;;;;;0.93;0.70;;;19.60;99.90;;;;;;4986448;28;19917;-78
2023/09/03 08:48:29;;;;;;;1.23;0.98;;;19.70;99.90;;;;;;4996399;28;20058;-78
2023/09/03 08:50:55;;;;;;;;;;;19.90;33.40;;;;;;4946501;28;20069;-78
2023/09/03 08:53:22;;;;;;;1.30;0.93;;;20.00;56.00;;;;;;4996827;28;19993;-79
2023/09/03 08:55:47;;;;;;;0.80;0.80;;;20.10;99.90;;;;;;4963659;28;20121;-78
2023/09/03 08:58:15;;;;;;;0.95;0.70;;;20.20;99.90;;;;;;4955592;28;20498;-77
2023/09/03 09:00:41;;;;;;;1.40;0.80;;;20.30;99.90;;;;;;4968663;28;21120;-78
2023/09/03 09:03:11;;;;;;;1.10;0.75;;;20.30;99.90;;;;;;4969418;28;20444;-78
2023/09/03 09:05:40;;;;;;;1.80;1.20;;;20.50;99.90;;;;;;4963769;28;20042;-78
2023/09/03 09:08:06;;;;;;;1.63;1.08;;;20.30;1.00;;;;;;4965337;28;20537;-78
2023/09/03 09:10:33;;;;;;;2.42;1.30;;;20.30;1.00;;;;;;4968337;28;20049;-78
2023/09/03 09:13:08;;;;;;;1.45;0.90;;;20.30;78.00;;;;;;4967473;28;20490;-77
2023/09/03 09:15:39;;;;;;;0.80;0.70;;;20.30;1.00;;;;;;4983634;28;20055;-77
2023/09/03 09:18:09;;;;;;;1.30;0.80;;;20.20;17.60;;;;;;4967043;28;20039;-78
2023/09/03 09:20:37;;;;;;;0.95;0.85;;;20.30;1.00;;;;;;4980520;28;20522;-79
2023/09/03 09:23:02;;;;;;;0.98;0.70;;;20.20;1.00;;;;;;4969962;28;20125;-79
2023/09/03 09:25:28;;;;;;;1.63;1.00;;;20.30;15.30;;;;;;4970444;28;20133;-78
2023/09/03 09:27:56;;;;;;;2.00;1.30;;;20.30;51.70;;;;;;4980519;28;20057;-77
2023/09/03 09:30:25;;;;;;;1.55;0.95;;;20.20;31.40;;;;;;4968849;28;20057;-78
2023/09/03 09:33:03;;;;;;;2.45;1.17;;;20.30;1.00;;;;;;4968737;28;20444;-79
2023/09/03 09:35:29;;;;;;;1.30;1.05;;;20.20;99.90;;;;;;4967569;28;20066;-79
2023/09/03 09:37:55;;;;;;;1.25;0.80;;;20.20;99.90;;;;;;4968909;28;20043;-79
2023/09/03 09:40:29;;;;;;;0.80;0.70;;;20.30;1.00;;;;;;4969933;28;20093;-78
2023/09/03 09:42:59;;;;;;;1.42;0.90;;;20.50;1.00;;;;;;4969770;28;20038;-78
2023/09/03 09:45:25;;;;;;;1.95;0.80;;;20.50;1.00;;;;;;4969381;28;20046;-78
2023/09/03 09:48:08;;;;;;;0.80;0.60;;;20.60;99.90;;;;;;4970352;28;20043;-78
2023/09/03 09:50:42;;;;;;;1.52;0.90;;;20.70;1.00;;;;;;4969394;28;20046;-80
2023/09/03 09:53:20;;;;;;;1.10;0.65;;;20.90;1.00;;;;;;4977180;28;20053;-78
2023/09/03 09:55:46;;;;;;;1.35;0.93;;;21.00;99.90;;;;;;4973416;28;20164;-79
2023/09/03 09:58:12;;;;;;;1.45;0.90;;;21.10;99.90;;;;;;4963840;28;20046;-78
2023/09/03 10:00:41;;;;;;;1.60;1.00;;;21.10;1.00;;;;;;4974069;28;20490;-78
2023/09/03 10:03:10;;;;;;;2.15;0.80;;;20.90;99.90;;;;;;4973182;28;20117;-78
2023/09/03 10:05:37;;;;;;;0.95;0.80;;;21.10;99.90;;;;;;4988807;28;20055;-79
2023/09/03 10:08:03;;;;;;;0.90;0.60;;;21.20;99.90;;;;;;4973862;28;20057;-81
2023/09/03 10:10:30;;;;;;;1.30;0.60;;;21.20;28.70;;;;;;4973941;28;20047;-80
2023/09/03 10:12:56;;;;;;;0.90;0.70;;;21.20;99.90;;;;;;4982435;28;20685;-79
2023/09/03 10:15:22;;;;;;;1.83;0.93;;;21.50;99.90;;;;;;4998611;28;20047;-80
2023/09/03 10:17:52;;;;;;;1.02;0.73;;;21.30;99.90;;;;;;4970577;28;20042;-75
2023/09/03 10:20:20;;;;;;;0.88;0.60;;;21.50;22.10;;;;;;4970212;28;20133;-78
2023/09/03 10:22:50;;;;;;;1.15;0.80;;;21.50;1.00;;;;;;4997658;28;20054;-80
2023/09/03 10:25:21;;;;;;;1.40;0.73;;;21.60;40.80;;;;;;4990796;28;20053;-79
2023/09/03 10:27:52;;;;;;;1.77;1.08;;;21.70;1.00;;;;;;4974027;28;20109;-80
2023/09/03 10:30:25;;;;;;;2.53;1.17;;;21.40;23.30;;;;;;4969271;28;20038;-78
2023/09/03 10:32:53;;;;;;;1.45;0.80;;;21.20;1.00;;;;;;4964503;28;20098;-83
2023/09/03 10:35:18;;;;;;;2.10;1.05;;;21.20;1.00;;;;;;4973695;28;20768;-80
2023/09/03 10:37:44;;;;;;;1.45;0.90;;;21.10;74.70;;;;;;4968496;28;20058;-79
2023/09/03 10:40:22;;;;;;;1.33;0.77;;;21.40;99.90;;;;;;4969257;28;20455;-79
2023/09/03 10:42:52;;;;;;;1.92;0.88;;;21.80;98.60;;;;;;4971035;28;20046;-78
2023/09/03 10:45:18;;;;;;;1.50;1.00;;;21.90;1.00;;;;;;4950585;28;20038;-80
2023/09/03 10:48:05;;;;;;;0.98;0.68;;;22.00;1.00;;;;;;4970892;28;20047;-79
2023/09/03 10:50:41;;;;;;;0.70;0.50;;;22.40;19.20;;;;;;4965389;28;20043;-80
2023/09/03 10:53:07;;;;;;;2.10;1.10;;;22.60;99.90;;;;;;4991915;28;20042;-78
2023/09/03 10:55:33;;;;;;;1.35;0.80;;;22.30;99.90;;;;;;4970009;28;20035;-79
2023/09/03 10:58:11;;;;;;;1.05;0.60;;;21.90;99.90;;;;;;4969843;28;20050;-79
2023/09/03 11:00:37;;;;;;;2.38;1.10;;;21.70;99.90;;;;;;4998511;28;20533;-80
2023/09/03 11:03:21;;;;;;;1.02;0.70;;;21.40;99.90;;;;;;4955247;28;20039;-80
2023/09/03 11:06:18;;;;;;;1.02;0.65;;;21.20;1.00;;;;;;4966748;28;20055;-80
2023/09/03 11:08:45;;;;;;;1.10;0.52;;;21.30;93.90;;;;;;4979142;28;20043;-78
2023/09/03 11:11:18;;;;;;;0.65;0.65;;;21.50;99.90;;;;;;4966231;28;20514;-77
2023/09/03 11:13:54;;;;;;;0.82;0.60;;;21.70;99.90;;;;;;4986746;28;20529;-79
2023/09/03 11:16:30;;;;;;;0.55;0.47;;;22.00;99.90;;;;;;4956118;28;20062;-79
2023/09/03 11:18:57;;;;;;;0.85;0.60;;;22.00;99.90;;;;;;4968903;28;20122;-79
2023/09/03 11:21:24;;;;;;;0.75;0.60;;;22.20;99.90;;;;;;4988745;28;20452;-79
2023/09/03 11:24:03;;;;;;;0.85;0.50;;;22.50;99.90;;;;;;4972765;28;20042;-79
2023/09/03 11:26:30;;;;;;;1.20;0.80;;;22.90;99.90;;;;;;4972205;28;20129;-79
2023/09/03 11:28:57;;;;;;;1.30;0.80;;;22.80;99.90;;;;;;4952704;28;20039;-79
2023/09/03 11:31:26;;;;;;;1.38;0.80;;;22.80;99.90;;;;;;4953362;28;20039;-79
2023/09/03 11:33:52;;;;;;;2.15;1.00;;;23.00;99.90;;;;;;4970878;28;20039;-79
2023/09/03 11:36:21;;;;;;;1.63;0.90;;;23.10;79.90;;;;;;4969040;28;20039;-79
2023/09/03 11:38:48;;;;;;;1.23;0.70;;;22.80;99.90;;;;;;4966273;28;20043;-79
2023/09/03 11:41:17;;;;;;;1.95;0.80;;;23.30;99.90;;;;;;4952845;29;20098;-79
2023/09/03 11:43:43;;;;;;;0.82;0.65;;;23.60;52.40;;;;;;4951924;28;20042;-79
2023/09/03 11:46:16;;;;;;;0.80;0.60;;;23.90;99.90;;;;;;4956126;28;20045;-79
2023/09/03 11:48:51;;;;;;;0.98;0.60;;;24.00;55.80;;;;;;4987971;28;20043;-79
2023/09/03 11:51:24;;;;;;;0.60;0.45;;;24.00;99.90;;;;;;4944331;28;20068;-79
2023/09/03 11:53:50;;;;;;;1.95;0.90;;;24.00;23.00;;;;;;4971879;28;20035;-79
2023/09/03 11:56:18;;;;;;;1.05;0.60;;;23.60;99.90;;;;;;4971984;28;20042;-79
2023/09/03 11:58:46;;;;;;;2.00;0.80;;;23.70;1.00;;;;;;4971928;28;20118;-79
2023/09/03 12:01:14;;;;;;;1.00;0.70;;;23.60;1.00;;;;;;4982222;28;20130;-79
2023/09/03 12:03:40;;;;;;;2.35;0.95;;;23.40;99.90;;;;;;4960855;28;20043;-79
2023/09/03 12:06:06;;;;;;;2.70;0.88;;;23.10;1.00;;;;;;4969710;28;20438;-79
2023/09/03 12:08:32;;;;;;;0.93;0.60;;;23.00;1.00;;;;;;4962083;28;20042;-79
2023/09/03 12:10:58;;;;;;;1.40;0.77;;;23.20;1.00;;;;;;4971667;28;20050;-78
2023/09/03 12:13:37;;;;;;;2.45;0.90;;;23.20;99.90;;;;;;4963255;28;20126;-79
2023/09/03 12:16:05;;;;;;;1.40;0.75;;;23.00;1.00;;;;;;4982416;28;20050;-79
2023/09/03 12:18:32;;;;;;;0.90;0.63;;;23.00;1.00;;;;;;4955333;28;20073;-79
2023/09/03 12:20:57;;;;;;;1.00;0.57;;;23.40;90.20;;;;;;4971398;28;20042;-79
2023/09/03 12:23:23;;;;;;;0.40;0.40;;;23.80;8.40;;;;;;4970296;28;20189;-79
2023/09/03 12:25:49;;;;;;;1.13;0.60;;;24.00;1.00;;;;;;4963623;28;20058;-78
2023/09/03 12:28:15;;;;;;;0.52;0.40;;;24.00;98.00;;;;;;4965462;28;20532;-78
2023/09/03 12:31:01;;;;;;;0.90;0.70;;;24.30;99.90;;;;;;4968240;28;20101;-78
2023/09/03 12:33:34;;;;;;;1.20;0.63;;;24.30;1.00;;;;;;4968823;28;20121;-78
2023/09/03 12:36:14;;;;;;;1.33;0.55;;;24.30;99.90;;;;;;4971161;28;20047;-79
2023/09/03 12:39:00;;;;;;;1.33;0.68;;;24.40;99.90;;;;;;4971241;28;20403;-79
2023/09/03 12:41:28;;;;;;;0.98;0.70;;;24.50;99.90;;;;;;4970952;28;20557;-79
2023/09/03 12:43:55;;;;;;;1.63;0.77;;;24.00;99.90;;;;;;4987442;28;20061;-79
2023/09/03 12:46:20;;;;;;;1.33;0.70;;;24.30;1.00;;;;;;4970933;28;20081;-79
2023/09/03 12:48:47;;;;;;;0.65;0.60;;;24.30;1.00;;;;;;4966451;28;20081;-79
2023/09/03 12:51:15;;;;;;;0.82;0.60;;;24.40;1.00;;;;;;4970895;28;20539;-79
2023/09/03 12:53:42;;;;;;;1.30;0.50;;;24.30;99.90;;;;;;4955319;28;20126;-79
2023/09/03 12:56:09;;;;;;;0.88;0.60;;;23.90;99.90;;;;;;4967604;28;20054;-79